createdAt,value
2023-10-28T00:00:31.783Z,3.05
2023-10-28T00:03:04.771Z,3.33
2023-10-28T00:05:35.055Z,3.65
2023-10-28T00:08:05.813Z,3.20
2023-10-28T00:10:36.878Z,2.92
2023-10-28T00:13:08.542Z,3.17
2023-10-28T00:15:39.304Z,2.45
2023-10-28T00:18:12.560Z,2.17
2023-10-28T00:20:45.453Z,2.95
2023-10-28T00:23:16.404Z,2.47
2023-10-28T00:25:46.787Z,2.83
2023-10-28T00:28:17.035Z,2.20
2023-10-28T00:30:48.745Z,2.67
2023-10-28T00:33:21.527Z,3.03
2023-10-28T00:35:51.744Z,2.63
2023-10-28T00:38:21.978Z,2.17
2023-10-28T00:40:52.507Z,2.17
2023-10-28T00:43:26.430Z,1.98
2023-10-28T00:45:58.268Z,2.33
2023-10-28T00:48:32.473Z,2.13
2023-10-28T00:51:02.915Z,2.33
2023-10-28T00:53:34.324Z,2.40
2023-10-28T00:56:04.720Z,2.45
2023-10-28T00:58:35.130Z,2.22
2023-10-28T01:01:05.627Z,2.45
2023-10-28T01:03:38.577Z,2.65
2023-10-28T01:06:10.831Z,2.20
2023-10-28T01:08:41.497Z,2.55
2023-10-28T01:11:11.815Z,2.25
2023-10-28T01:13:43.472Z,2.20
2023-10-28T01:16:14.322Z,2.85
2023-10-28T01:18:47.418Z,2.35
2023-10-28T01:21:20.621Z,2.20
2023-10-28T01:23:52.655Z,2.78
2023-10-28T01:26:24.172Z,2.08
2023-10-28T01:28:54.351Z,2.10
2023-10-28T01:31:25.036Z,1.95
2023-10-28T01:33:55.328Z,1.90
2023-10-28T01:36:28.142Z,1.88
2023-10-28T01:38:58.439Z,2.47
2023-10-28T01:41:28.710Z,2.42
2023-10-28T01:43:59.865Z,2.10
2023-10-28T01:46:32.021Z,2.67
2023-10-28T01:49:04.357Z,2.10
2023-10-28T01:51:38.453Z,2.05
2023-10-28T01:54:10.246Z,2.20
2023-10-28T01:56:41.350Z,2.28
2023-10-28T01:59:14.477Z,1.70
2023-10-28T02:01:44.813Z,1.88
2023-10-28T02:04:19.038Z,1.80
2023-10-28T02:06:52.422Z,2.28
2023-10-28T02:09:23.831Z,1.65
2023-10-28T02:11:55.296Z,2.20
2023-10-28T02:14:28.330Z,1.83
2023-10-28T02:17:00.542Z,2.22
2023-10-28T02:19:32.487Z,1.30
2023-10-28T02:22:13.498Z,1.58
2023-10-28T02:24:46.781Z,1.60
2023-10-28T02:27:14.454Z,1.60
2023-10-28T02:29:46.486Z,1.58
2023-10-28T02:32:16.950Z,1.52
2023-10-28T02:34:48.082Z,1.55
2023-10-28T02:37:22.467Z,1.90
2023-10-28T02:39:52.753Z,1.70
2023-10-28T02:42:25.348Z,1.67
2023-10-28T02:44:55.907Z,2.08
2023-10-28T02:47:28.286Z,2.38
2023-10-28T02:50:01.922Z,1.55
2023-10-28T02:52:35.422Z,1.58
2023-10-28T02:55:07.496Z,1.48
2023-10-28T02:57:39.709Z,1.57
2023-10-28T03:00:13.713Z,1.85
2023-10-28T03:02:45.116Z,1.60
2023-10-28T03:05:15.854Z,1.70
2023-10-28T03:07:49.501Z,1.63
2023-10-28T03:10:22.291Z,1.48
2023-10-28T03:12:52.579Z,1.40
2023-10-28T03:15:24.524Z,1.90
2023-10-28T03:17:56.165Z,2.03
2023-10-28T03:20:27.684Z,1.45
2023-10-28T03:23:01.518Z,1.20
2023-10-28T03:25:35.212Z,1.45
2023-10-28T03:28:07.093Z,1.48
2023-10-28T03:30:43.793Z,1.08
2023-10-28T03:33:14.133Z,1.30
2023-10-28T03:35:44.478Z,1.45
2023-10-28T03:38:17.383Z,1.30
2023-10-28T03:40:47.646Z,1.58
2023-10-28T03:43:17.853Z,1.20
2023-10-28T03:45:49.764Z,1.27
2023-10-28T03:48:20.086Z,1.08
2023-10-28T03:50:50.316Z,1.75
2023-10-28T03:53:23.167Z,1.60
2023-10-28T03:55:53.344Z,2.40
2023-10-28T03:58:23.610Z,1.27
2023-10-28T04:00:55.954Z,1.60
2023-10-28T04:03:27.312Z,3.28
2023-10-28T04:05:57.646Z,4.80
2023-10-28T04:08:30.614Z,4.85
2023-10-28T04:11:00.861Z,4.28
2023-10-28T04:13:31.943Z,3.80
2023-10-28T04:16:02.388Z,2.50
2023-10-28T04:18:33.197Z,2.33
2023-10-28T04:21:03.470Z,1.50
2023-10-28T04:23:36.448Z,1.42
2023-10-28T04:26:06.921Z,1.63
2023-10-28T04:28:38.373Z,1.40
2023-10-28T04:31:08.930Z,1.30
2023-10-28T04:33:39.399Z,1.17
2023-10-28T04:36:11.266Z,1.83
2023-10-28T04:38:44.295Z,1.67
2023-10-28T04:41:18.685Z,1.58
2023-10-28T04:43:50.455Z,1.20
2023-10-28T04:46:23.176Z,1.48
2023-10-28T04:48:53.850Z,1.80
2023-10-28T04:51:25.846Z,1.98
2023-10-28T04:54:00.094Z,1.98
2023-10-28T04:56:31.409Z,1.95
2023-10-28T04:59:01.960Z,1.77
2023-10-28T05:01:33.631Z,1.67
2023-10-28T05:04:05.036Z,1.58
2023-10-28T05:06:37.295Z,1.98
2023-10-28T05:09:11.477Z,1.92
2023-10-28T05:11:45.460Z,1.63
2023-10-28T05:14:15.887Z,1.98
2023-10-28T05:16:55.552Z,1.33
2023-10-28T05:19:26.173Z,1.85
2023-10-28T05:21:57.166Z,1.38
2023-10-28T05:24:30.769Z,1.35
2023-10-28T05:27:01.542Z,1.92
2023-10-28T05:29:31.730Z,1.67
2023-10-28T05:32:02.092Z,1.60
2023-10-28T05:34:32.326Z,1.70
2023-10-28T05:37:02.498Z,1.58
2023-10-28T05:39:35.665Z,2.03
2023-10-28T05:42:06.084Z,1.65
2023-10-28T05:44:36.662Z,1.73
2023-10-28T05:47:08.804Z,1.95
2023-10-28T05:49:39.093Z,2.20
2023-10-28T05:52:10.822Z,2.15
2023-10-28T05:54:43.854Z,2.63
2023-10-28T05:57:14.199Z,2.35
2023-10-28T05:59:44.695Z,1.98
2023-10-28T06:02:15.245Z,1.73
2023-10-28T06:04:45.699Z,2.13
2023-10-28T06:07:15.869Z,2.10
2023-10-28T06:09:49.295Z,1.92
2023-10-28T06:12:19.603Z,1.75
2023-10-28T06:14:49.988Z,1.90
2023-10-28T06:17:21.744Z,1.80
2023-10-28T06:19:52.057Z,1.90
2023-10-28T06:22:23.312Z,2.20
2023-10-28T06:24:56.700Z,1.33
2023-10-28T06:27:26.977Z,1.98
2023-10-28T06:29:57.455Z,2.40
2023-10-28T06:32:29.227Z,2.20
2023-10-28T06:34:59.586Z,2.45
2023-10-28T06:37:29.919Z,2.33
2023-10-28T06:40:02.843Z,2.20
2023-10-28T06:42:33.047Z,1.83
2023-10-28T06:45:03.293Z,2.45
2023-10-28T06:47:33.594Z,1.88
2023-10-28T06:50:06.279Z,1.75
2023-10-28T06:52:37.913Z,1.58
2023-10-28T06:55:13.859Z,1.70
2023-10-28T06:57:44.538Z,1.50
2023-10-28T07:00:17.324Z,1.70
2023-10-28T07:02:48.234Z,1.67
2023-10-28T07:05:18.597Z,1.70
2023-10-28T07:07:48.862Z,1.67
2023-10-28T07:10:21.779Z,1.40
2023-10-28T07:12:52.328Z,1.50
2023-10-28T07:15:23.506Z,1.30
2023-10-28T07:17:53.832Z,1.30
2023-10-28T07:20:24.201Z,1.10
2023-10-28T07:22:52.918Z,1.33
2023-10-28T07:25:25.809Z,1.70
2023-10-28T07:27:55.983Z,1.37
2023-10-28T07:30:26.492Z,1.15
2023-10-28T07:32:57.623Z,1.23
2023-10-28T07:35:29.029Z,1.13
2023-10-28T07:37:59.277Z,0.90
2023-10-28T07:40:32.123Z,1.23
2023-10-28T07:43:02.289Z,1.00
2023-10-28T07:45:35.955Z,0.80
2023-10-28T07:50:38.221Z,1.02
2023-10-28T07:53:08.906Z,1.13
2023-10-28T07:55:42.349Z,1.67
2023-10-28T07:58:12.593Z,0.93
2023-10-28T08:00:43.240Z,1.20
2023-10-28T08:03:13.549Z,1.52
2023-10-28T08:05:44.771Z,0.98
2023-10-28T08:08:14.984Z,0.90
2023-10-28T08:10:47.874Z,1.35
2023-10-28T08:13:18.115Z,0.90
2023-10-28T08:15:51.439Z,1.20
2023-10-28T08:18:21.721Z,1.08
2023-10-28T08:20:51.959Z,0.75
2023-10-28T08:23:24.201Z,1.00
2023-10-28T08:25:57.108Z,0.65
2023-10-28T08:28:27.762Z,0.65
2023-10-28T08:30:58.981Z,0.73
2023-10-28T08:33:29.548Z,0.70
2023-10-28T08:36:01.272Z,0.50
2023-10-28T08:38:31.965Z,1.05
2023-10-28T08:41:07.213Z,0.68
2023-10-28T08:43:38.962Z,0.80
2023-10-28T08:46:09.861Z,0.63
2023-10-28T08:48:41.353Z,1.00
2023-10-28T08:51:13.143Z,0.73
2023-10-28T08:53:44.824Z,0.73
2023-10-28T08:56:21.779Z,0.60
2023-10-28T08:58:53.821Z,0.40
2023-10-28T09:01:25.496Z,0.90
2023-10-28T09:03:58.520Z,0.73
2023-10-28T09:06:29.902Z,0.77
2023-10-28T09:09:02.220Z,0.90
2023-10-28T09:11:35.052Z,0.75
2023-10-28T09:14:09.190Z,0.77
2023-10-28T09:16:39.849Z,1.05
2023-10-28T09:19:21.263Z,0.80
2023-10-28T09:21:51.560Z,0.75
2023-10-28T09:24:23.083Z,1.00
2023-10-28T09:26:55.936Z,1.30
2023-10-28T09:29:31.863Z,1.88
2023-10-28T09:32:10.336Z,1.15
2023-10-28T09:34:41.336Z,1.50
2023-10-28T09:37:13.434Z,0.60
2023-10-28T09:39:48.297Z,0.50
2023-10-28T09:42:23.468Z,0.50
2023-10-28T09:44:55.122Z,0.80
2023-10-28T09:47:27.232Z,1.00
2023-10-28T09:50:04.042Z,0.70
2023-10-28T09:52:38.010Z,1.25
2023-10-28T09:55:13.599Z,0.77
2023-10-28T09:57:47.837Z,1.10
2023-10-28T10:00:24.528Z,0.80
2023-10-28T10:03:11.182Z,1.30
2023-10-28T10:05:46.406Z,1.08
2023-10-28T10:08:23.800Z,1.45
2023-10-28T10:10:57.328Z,0.70
2023-10-28T10:16:06.382Z,0.80
2023-10-28T10:18:41.776Z,0.90
2023-10-28T10:21:16.220Z,0.60
2023-10-28T10:23:47.746Z,0.85
2023-10-28T10:26:25.763Z,0.88
2023-10-28T10:29:00.030Z,0.75
2023-10-28T10:31:34.213Z,0.63
2023-10-28T10:34:08.462Z,0.47
2023-10-28T10:36:47.987Z,0.75
2023-10-28T10:39:20.166Z,0.47
2023-10-28T10:41:52.973Z,0.65
2023-10-28T10:44:36.300Z,0.68
2023-10-28T10:47:10.173Z,0.60
2023-10-28T10:49:42.667Z,1.05
2023-10-28T10:52:13.116Z,0.38
2023-10-28T10:54:43.842Z,0.35
2023-10-28T10:57:14.270Z,0.68
2023-10-28T10:59:47.471Z,0.65
2023-10-28T11:02:19.056Z,0.60
2023-10-28T11:04:49.483Z,0.80
2023-10-28T11:07:19.745Z,1.42
2023-10-28T11:09:50.173Z,0.57
2023-10-28T11:12:26.254Z,0.90
2023-10-28T11:15:00.130Z,0.98
2023-10-28T11:17:30.779Z,1.00
2023-10-28T11:20:05.165Z,0.88
2023-10-28T11:22:35.608Z,0.90
2023-10-28T11:25:06.585Z,1.10
2023-10-28T11:27:38.850Z,0.77
2023-10-28T11:30:15.550Z,1.05
2023-10-28T11:32:45.801Z,0.93
2023-10-28T11:35:17.194Z,0.93
2023-10-28T11:37:47.598Z,0.77
2023-10-28T11:40:22.531Z,0.90
2023-10-28T11:42:55.689Z,0.90
2023-10-28T11:45:29.072Z,1.60
2023-10-28T11:47:59.673Z,0.90
2023-10-28T11:50:30.170Z,0.93
2023-10-28T11:53:00.410Z,0.85
2023-10-28T11:55:30.642Z,1.25
2023-10-28T11:58:00.967Z,1.20
2023-10-28T12:00:35.887Z,1.00
2023-10-28T12:03:07.264Z,1.13
2023-10-28T12:05:39.644Z,0.80
2023-10-28T12:08:12.489Z,0.80
2023-10-28T12:10:49.105Z,1.10
2023-10-28T12:13:20.197Z,1.00
2023-10-28T12:15:54.479Z,0.88
2023-10-28T12:18:25.077Z,0.85
2023-10-28T12:20:55.411Z,1.10
2023-10-28T12:23:25.730Z,1.33
2023-10-28T12:25:55.962Z,0.90
2023-10-28T12:28:26.288Z,1.40
2023-10-28T12:30:59.992Z,0.80
2023-10-28T12:33:30.276Z,0.85
2023-10-28T12:36:00.769Z,1.70
2023-10-28T12:38:31.025Z,1.38
2023-10-28T12:41:01.303Z,1.70
2023-10-28T12:43:31.576Z,1.63
2023-10-28T12:46:08.257Z,1.55
2023-10-28T12:48:38.608Z,1.25
2023-10-28T12:51:09.916Z,2.60
2023-10-28T12:53:40.223Z,1.88
2023-10-28T12:56:11.869Z,1.50
2023-10-28T12:58:42.292Z,1.50
2023-10-28T13:01:15.623Z,1.13
2023-10-28T13:03:46.025Z,1.25
2023-10-28T13:06:16.598Z,0.80
2023-10-28T13:08:46.977Z,0.90
2023-10-28T13:11:19.212Z,1.15
2023-10-28T13:13:49.890Z,1.17
2023-10-28T13:16:22.833Z,2.35
2023-10-28T13:18:58.233Z,3.05
2023-10-28T13:21:31.199Z,3.00
2023-10-28T13:24:01.449Z,2.15
2023-10-28T13:26:31.729Z,1.77
2023-10-28T13:29:02.134Z,1.80
2023-10-28T13:31:35.671Z,1.30
2023-10-28T13:36:40.771Z,3.55
2023-10-28T13:39:19.750Z,0.85
2023-10-28T13:41:55.652Z,1.77
2023-10-28T13:44:28.777Z,1.02
2023-10-28T13:47:03.314Z,0.90
2023-10-28T13:49:37.475Z,0.80
2023-10-28T13:52:08.618Z,0.80
2023-10-28T13:54:42.718Z,1.00
2023-10-28T13:57:13.960Z,1.23
2023-10-28T13:59:46.849Z,0.95
2023-10-28T14:02:23.008Z,1.30
2023-10-28T14:04:55.919Z,1.15
2023-10-28T14:07:27.185Z,0.95
2023-10-28T14:10:09.304Z,1.10
2023-10-28T14:12:42.577Z,1.20
2023-10-28T14:15:15.109Z,1.27
2023-10-28T14:17:48.205Z,1.10
2023-10-28T14:20:19.807Z,1.00
2023-10-28T14:22:53.675Z,9.73
2023-10-28T14:25:28.233Z,9.38
2023-10-28T14:27:58.611Z,7.53
2023-10-28T14:30:31.217Z,3.60
2023-10-28T14:33:05.678Z,2.40
2023-10-28T14:35:39.072Z,2.53
2023-10-28T14:38:09.726Z,3.10
2023-10-28T14:40:43.237Z,1.60
2023-10-28T14:43:14.362Z,3.42
2023-10-28T14:45:46.037Z,2.03
2023-10-28T14:48:19.106Z,2.20
2023-10-28T14:50:54.219Z,1.33
2023-10-28T14:53:24.485Z,1.30
2023-10-28T14:55:55.957Z,1.23
2023-10-28T14:58:33.008Z,1.30
2023-10-28T15:01:10.899Z,1.08
2023-10-28T15:03:45.223Z,1.33
2023-10-28T15:06:20.816Z,0.98
2023-10-28T15:08:51.376Z,0.60
2023-10-28T15:11:27.615Z,0.90
2023-10-28T15:13:58.423Z,0.85
2023-10-28T15:16:30.303Z,1.08
2023-10-28T15:19:03.995Z,1.60
2023-10-28T15:21:35.555Z,1.15
2023-10-28T15:24:07.007Z,0.85
2023-10-28T15:26:40.400Z,0.93
2023-10-28T15:29:11.100Z,1.42
2023-10-28T15:31:42.774Z,1.17
2023-10-28T15:34:15.736Z,1.35
2023-10-28T15:36:46.100Z,1.42
2023-10-28T15:39:17.808Z,1.45
2023-10-28T15:41:51.559Z,1.95
2023-10-28T15:44:23.245Z,2.65
2023-10-28T15:46:54.832Z,5.43
2023-10-28T15:49:28.055Z,7.40
2023-10-28T15:51:59.766Z,7.70
2023-10-28T15:54:30.371Z,6.35
2023-10-28T15:57:02.126Z,4.72
2023-10-28T15:59:33.521Z,4.45
2023-10-28T16:02:05.245Z,4.40
2023-10-28T16:04:38.813Z,4.07
2023-10-28T16:09:41.739Z,2.75
2023-10-28T16:12:13.994Z,3.85
2023-10-28T16:14:47.629Z,2.63
2023-10-28T16:17:20.116Z,2.47
2023-10-28T16:19:54.955Z,2.88
2023-10-28T16:22:26.921Z,2.55
2023-10-28T16:24:59.517Z,2.33
2023-10-28T16:27:32.736Z,2.40
2023-10-28T16:30:04.228Z,2.50
2023-10-28T16:32:40.362Z,5.75
2023-10-28T16:35:15.157Z,4.30
2023-10-28T16:37:45.560Z,4.53
2023-10-28T16:40:16.751Z,10.32
2023-10-28T16:43:02.939Z,7.70
2023-10-28T16:45:35.989Z,7.38
2023-10-28T16:48:10.471Z,10.18
2023-10-28T16:50:43.737Z,12.38
2023-10-28T16:53:14.050Z,14.15
2023-10-28T16:55:46.527Z,13.00
2023-10-28T16:58:21.886Z,14.75
2023-10-28T17:00:56.562Z,15.85
2023-10-28T17:03:27.074Z,12.45
2023-10-28T17:06:00.088Z,11.57
2023-10-28T17:08:30.551Z,11.00
2023-10-28T17:11:03.867Z,7.57
2023-10-28T17:13:34.366Z,5.70
2023-10-28T17:16:05.079Z,4.13
2023-10-28T17:18:36.009Z,5.00
2023-10-28T17:21:12.391Z,3.35
2023-10-28T17:23:46.220Z,2.72
2023-10-28T17:26:16.584Z,2.65
2023-10-28T17:28:47.068Z,2.70
2023-10-28T17:31:17.334Z,2.05
2023-10-28T17:33:50.083Z,2.10
2023-10-28T17:36:24.369Z,1.93
2023-10-28T17:38:54.971Z,2.25
2023-10-28T17:41:25.454Z,2.38
2023-10-28T17:43:58.355Z,2.13
2023-10-28T17:46:28.737Z,2.25
2023-10-28T17:49:00.421Z,2.13
2023-10-28T17:51:33.476Z,2.50
2023-10-28T17:54:07.137Z,2.42
2023-10-28T17:56:37.687Z,2.88
2023-10-28T17:59:09.566Z,2.53
2023-10-28T18:01:39.977Z,2.75
2023-10-28T18:04:16.902Z,2.83
2023-10-28T18:06:50.173Z,4.93
2023-10-28T18:09:21.824Z,4.95
2023-10-28T18:11:54.244Z,4.47
2023-10-28T18:14:24.573Z,4.05
2023-10-28T18:16:55.106Z,4.50
2023-10-28T18:19:28.059Z,4.75
2023-10-28T18:22:02.142Z,4.27
2023-10-28T18:24:32.610Z,4.28
2023-10-28T18:27:04.048Z,4.78
2023-10-28T18:29:34.871Z,4.88
2023-10-28T18:32:13.640Z,3.85
2023-10-28T18:34:47.795Z,5.65
2023-10-28T18:37:20.882Z,4.43
2023-10-28T18:39:51.350Z,4.30
2023-10-28T18:42:22.178Z,4.57
2023-10-28T18:44:53.627Z,4.65
2023-10-28T18:47:29.727Z,5.10
2023-10-28T18:50:00.046Z,5.53
2023-10-28T18:52:40.537Z,5.13
2023-10-28T18:55:13.937Z,5.28
2023-10-28T18:57:44.438Z,4.38
2023-10-28T19:00:15.589Z,3.75
2023-10-28T19:02:46.092Z,4.68
2023-10-28T19:05:21.382Z,4.30
2023-10-28T19:07:56.005Z,3.83
2023-10-28T19:10:26.286Z,3.50
2023-10-28T19:12:59.338Z,4.35
2023-10-28T19:15:31.453Z,3.72
2023-10-28T19:18:03.152Z,3.47
2023-10-28T19:20:33.809Z,4.00
2023-10-28T19:23:06.778Z,4.00
2023-10-28T19:25:37.095Z,3.50
2023-10-28T19:28:08.511Z,3.90
2023-10-28T19:30:41.486Z,3.42
2023-10-28T19:33:12.069Z,3.45
2023-10-28T19:35:42.515Z,3.25
2023-10-28T19:38:15.483Z,3.00
2023-10-28T19:40:45.794Z,3.10
2023-10-28T19:43:16.236Z,3.20
2023-10-28T19:45:46.556Z,3.28
2023-10-28T19:48:17.160Z,2.78
2023-10-28T19:50:44.872Z,3.30
2023-10-28T19:53:27.255Z,2.95
2023-10-28T19:56:00.783Z,2.55
2023-10-28T19:58:32.850Z,3.00
2023-10-28T20:01:03.622Z,2.20
2023-10-28T20:03:34.085Z,2.90
2023-10-28T20:06:07.818Z,2.90
2023-10-28T20:11:13.307Z,3.60
2023-10-28T20:13:47.870Z,2.70
2023-10-28T20:16:19.689Z,3.05
2023-10-28T20:18:52.564Z,3.00
2023-10-28T20:21:22.856Z,3.33
2023-10-28T20:23:55.835Z,2.22
2023-10-28T20:26:26.583Z,2.53
2023-10-28T20:28:56.849Z,3.25
2023-10-28T20:31:27.228Z,3.35
2023-10-28T20:33:57.564Z,2.70
2023-10-28T20:36:28.905Z,2.72
2023-10-28T20:39:04.121Z,2.90
2023-10-28T20:41:35.051Z,3.05
2023-10-28T20:44:05.339Z,3.20
2023-10-28T20:46:35.908Z,3.65
2023-10-28T20:49:07.238Z,2.97
2023-10-28T20:51:40.630Z,3.05
2023-10-28T20:54:14.654Z,2.72
2023-10-28T20:56:45.551Z,2.88
2023-10-28T20:59:15.851Z,2.75
2023-10-28T21:01:46.210Z,3.00
2023-10-28T21:04:16.998Z,2.95
2023-10-28T21:06:47.322Z,3.65
2023-10-28T21:09:20.233Z,3.88
2023-10-28T21:11:50.654Z,4.47
2023-10-28T21:14:22.057Z,3.83
2023-10-28T21:16:52.702Z,4.57
2023-10-28T21:19:23.366Z,4.00
2023-10-28T21:21:56.228Z,4.80
2023-10-28T21:24:29.457Z,4.85
2023-10-28T21:26:59.772Z,5.13
2023-10-28T21:29:30.388Z,4.78
2023-10-28T21:32:02.529Z,4.10
2023-10-28T21:34:33.676Z,4.57
2023-10-28T21:37:04.231Z,4.15
2023-10-28T21:39:37.135Z,4.65
2023-10-28T21:42:08.240Z,4.30
2023-10-28T21:44:40.226Z,4.57
2023-10-28T21:47:10.538Z,4.72
2023-10-28T21:49:40.954Z,4.57
2023-10-28T21:52:12.983Z,4.25
2023-10-28T21:54:46.252Z,4.55
2023-10-28T21:57:16.933Z,4.68
2023-10-28T21:59:47.421Z,4.05
2023-10-28T22:02:18.040Z,3.80
2023-10-28T22:04:50.931Z,3.45
2023-10-28T22:07:23.208Z,3.53
2023-10-28T22:09:57.344Z,3.35
2023-10-28T22:12:27.575Z,3.08
2023-10-28T22:14:57.750Z,2.67
2023-10-28T22:17:29.159Z,2.28
2023-10-28T22:19:59.836Z,3.13
2023-10-28T22:22:33.595Z,3.53
2023-10-28T22:25:07.392Z,4.53
2023-10-28T22:30:09.943Z,5.15
2023-10-28T22:32:40.574Z,6.03
2023-10-28T22:35:12.416Z,6.45
2023-10-28T22:37:43.001Z,7.65
2023-10-28T22:40:17.240Z,8.70
2023-10-28T22:42:47.777Z,8.73
2023-10-28T22:45:26.495Z,8.82
2023-10-28T22:47:57.740Z,8.40
2023-10-28T22:50:28.264Z,9.02
2023-10-28T22:52:58.610Z,9.10
2023-10-28T22:55:31.574Z,7.25
2023-10-28T22:58:02.138Z,7.82
2023-10-28T23:00:35.184Z,7.03
2023-10-28T23:03:09.087Z,7.47
2023-10-28T23:05:40.443Z,7.07
2023-10-28T23:08:11.228Z,7.80
2023-10-28T23:10:44.246Z,7.22
2023-10-28T23:13:14.896Z,5.97
2023-10-28T23:15:46.816Z,7.47
2023-10-28T23:18:19.788Z,6.82
2023-10-28T23:20:52.160Z,7.28
2023-10-28T23:23:22.849Z,6.72
2023-10-28T23:25:55.750Z,7.63
2023-10-28T23:28:27.062Z,6.07
2023-10-28T23:30:57.485Z,6.18
2023-10-28T23:33:27.824Z,6.00
2023-10-28T23:35:58.069Z,6.50
2023-10-28T23:38:28.390Z,6.53
2023-10-28T23:41:01.301Z,6.97
2023-10-28T23:43:31.461Z,6.22
2023-10-28T23:46:01.714Z,6.57
2023-10-28T23:48:32.001Z,6.57
2023-10-28T23:51:02.305Z,6.65
2023-10-28T23:53:32.602Z,5.88
2023-10-28T23:56:06.069Z,6.47
2023-10-28T23:58:36.325Z,7.32
